sensor_id;sensor_type;location;lat;lon;timestamp;temperature;humidity
49042;DHT22;34859;51.608;11.462;2022-07-23T00:00:41;16.90;99.90
49042;DHT22;34859;51.608;11.462;2022-07-23T00:03:26;16.90;99.90
49042;DHT22;34859;51.608;11.462;2022-07-23T00:06:12;16.90;99.90
49042;DHT22;34859;51.608;11.462;2022-07-23T00:08:58;16.90;99.90
49042;DHT22;34859;51.608;11.462;2022-07-23T00:11:43;16.90;99.90
49042;DHT22;34859;51.608;11.462;2022-07-23T00:14:29;16.90;99.90
49042;DHT22;34859;51.608;11.462;2022-07-23T00:17:15;16.90;99.90
49042;DHT22;34859;51.608;11.462;2022-07-23T00:20:00;17.00;99.90
49042;DHT22;34859;51.608;11.462;2022-07-23T00:22:51;17.00;99.90
49042;DHT22;34859;51.608;11.462;2022-07-23T00:25:37;17.00;99.90
49042;DHT22;34859;51.608;11.462;2022-07-23T00:28:23;17.00;99.90
49042;DHT22;34859;51.608;11.462;2022-07-23T00:31:09;17.10;99.90
49042;DHT22;34859;51.608;11.462;2022-07-23T00:33:54;17.10;99.90
49042;DHT22;34859;51.608;11.462;2022-07-23T00:36:43;17.10;99.90
49042;DHT22;34859;51.608;11.462;2022-07-23T00:39:28;17.10;99.90
49042;DHT22;34859;51.608;11.462;2022-07-23T00:42:14;17.10;99.90
49042;DHT22;34859;51.608;11.462;2022-07-23T00:44:59;17.10;99.90
49042;DHT22;34859;51.608;11.462;2022-07-23T00:47:45;17.10;99.90
49042;DHT22;34859;51.608;11.462;2022-07-23T00:50:31;17.20;99.90
49042;DHT22;34859;51.608;11.462;2022-07-23T00:53:16;17.20;99.90
49042;DHT22;34859;51.608;11.462;2022-07-23T00:56:00;17.20;99.90
49042;DHT22;34859;51.608;11.462;2022-07-23T00:58:46;17.20;99.90
49042;DHT22;34859;51.608;11.462;2022-07-23T01:01:32;17.20;99.90
49042;DHT22;34859;51.608;11.462;2022-07-23T01:04:18;17.20;99.90
49042;DHT22;34859;51.608;11.462;2022-07-23T01:07:04;17.20;99.90
49042;DHT22;34859;51.608;11.462;2022-07-23T01:09:51;17.20;99.90
49042;DHT22;34859;51.608;11.462;2022-07-23T01:12:37;17.20;99.90
49042;DHT22;34859;51.608;11.462;2022-07-23T01:15:22;17.20;99.90
49042;DHT22;34859;51.608;11.462;2022-07-23T01:18:08;17.20;99.90
49042;DHT22;34859;51.608;11.462;2022-07-23T01:20:54;17.30;99.90
49042;DHT22;34859;51.608;11.462;2022-07-23T01:23:40;17.30;99.90
49042;DHT22;34859;51.608;11.462;2022-07-23T01:26:26;17.30;99.90
49042;DHT22;34859;51.608;11.462;2022-07-23T01:29:12;17.40;99.90
49042;DHT22;34859;51.608;11.462;2022-07-23T01:31:58;17.40;99.90
49042;DHT22;34859;51.608;11.462;2022-07-23T01:34:44;17.30;99.90
49042;DHT22;34859;51.608;11.462;2022-07-23T01:37:29;17.40;99.90
49042;DHT22;34859;51.608;11.462;2022-07-23T01:40:15;17.50;99.90
49042;DHT22;34859;51.608;11.462;2022-07-23T01:43:00;17.50;99.90
49042;DHT22;34859;51.608;11.462;2022-07-23T01:45:46;17.60;99.90
49042;DHT22;34859;51.608;11.462;2022-07-23T01:48:32;17.70;99.90
49042;DHT22;34859;51.608;11.462;2022-07-23T01:51:17;17.70;99.90
49042;DHT22;34859;51.608;11.462;2022-07-23T01:54:03;17.70;99.90
49042;DHT22;34859;51.608;11.462;2022-07-23T01:56:49;17.70;99.90
49042;DHT22;34859;51.608;11.462;2022-07-23T01:59:35;17.80;99.90
49042;DHT22;34859;51.608;11.462;2022-07-23T02:02:21;17.80;99.90
49042;DHT22;34859;51.608;11.462;2022-07-23T02:05:06;17.80;99.90
49042;DHT22;34859;51.608;11.462;2022-07-23T02:07:53;17.80;99.90
49042;DHT22;34859;51.608;11.462;2022-07-23T02:10:39;17.70;99.90
49042;DHT22;34859;51.608;11.462;2022-07-23T02:13:25;17.70;99.90
49042;DHT22;34859;51.608;11.462;2022-07-23T02:16:11;17.50;99.90
49042;DHT22;34859;51.608;11.462;2022-07-23T02:18:56;17.40;99.90
49042;DHT22;34859;51.608;11.462;2022-07-23T02:21:42;17.20;99.90
49042;DHT22;34859;51.608;11.462;2022-07-23T02:24:28;17.30;99.90
49042;DHT22;34859;51.608;11.462;2022-07-23T02:27:13;17.30;99.90
49042;DHT22;34859;51.608;11.462;2022-07-23T02:29:59;17.30;99.90
49042;DHT22;34859;51.608;11.462;2022-07-23T02:32:45;17.30;99.90
49042;DHT22;34859;51.608;11.462;2022-07-23T02:35:31;17.20;99.90
49042;DHT22;34859;51.608;11.462;2022-07-23T02:38:17;17.20;99.90
49042;DHT22;34859;51.608;11.462;2022-07-23T02:41:02;17.20;99.90
49042;DHT22;34859;51.608;11.462;2022-07-23T02:43:48;17.30;99.90
49042;DHT22;34859;51.608;11.462;2022-07-23T02:46:33;17.20;99.90
49042;DHT22;34859;51.608;11.462;2022-07-23T02:49:19;17.20;99.90
49042;DHT22;34859;51.608;11.462;2022-07-23T02:52:05;17.10;99.90
49042;DHT22;34859;51.608;11.462;2022-07-23T02:54:50;17.10;99.90
49042;DHT22;34859;51.608;11.462;2022-07-23T02:57:36;17.10;99.90
49042;DHT22;34859;51.608;11.462;2022-07-23T03:00:22;17.10;99.90
49042;DHT22;34859;51.608;11.462;2022-07-23T03:03:08;17.00;99.90
49042;DHT22;34859;51.608;11.462;2022-07-23T03:05:53;17.10;99.90
49042;DHT22;34859;51.608;11.462;2022-07-23T03:08:39;17.00;99.90
49042;DHT22;34859;51.608;11.462;2022-07-23T03:11:25;17.10;99.90
49042;DHT22;34859;51.608;11.462;2022-07-23T03:14:10;17.10;99.90
49042;DHT22;34859;51.608;11.462;2022-07-23T03:16:58;17.20;99.90
49042;DHT22;34859;51.608;11.462;2022-07-23T03:19:45;17.10;99.90
49042;DHT22;34859;51.608;11.462;2022-07-23T03:22:30;17.00;99.90
49042;DHT22;34859;51.608;11.462;2022-07-23T03:25:16;17.00;99.90
49042;DHT22;34859;51.608;11.462;2022-07-23T03:28:02;17.00;99.90
49042;DHT22;34859;51.608;11.462;2022-07-23T03:30:47;17.00;99.90
49042;DHT22;34859;51.608;11.462;2022-07-23T03:33:33;17.00;99.90
49042;DHT22;34859;51.608;11.462;2022-07-23T03:36:19;17.00;99.90
49042;DHT22;34859;51.608;11.462;2022-07-23T03:39:04;16.90;99.90
49042;DHT22;34859;51.608;11.462;2022-07-23T03:41:50;16.90;99.90
49042;DHT22;34859;51.608;11.462;2022-07-23T03:44:36;16.90;99.90
49042;DHT22;34859;51.608;11.462;2022-07-23T03:47:24;16.90;99.90
49042;DHT22;34859;51.608;11.462;2022-07-23T03:50:10;16.90;99.90
49042;DHT22;34859;51.608;11.462;2022-07-23T03:52:56;16.90;99.90
49042;DHT22;34859;51.608;11.462;2022-07-23T03:55:41;17.00;99.90
49042;DHT22;34859;51.608;11.462;2022-07-23T03:58:27;16.90;99.90
49042;DHT22;34859;51.608;11.462;2022-07-23T04:01:13;16.90;99.90
49042;DHT22;34859;51.608;11.462;2022-07-23T04:03:58;16.90;99.90
49042;DHT22;34859;51.608;11.462;2022-07-23T04:06:44;16.90;99.90
49042;DHT22;34859;51.608;11.462;2022-07-23T04:09:30;17.00;99.90
49042;DHT22;34859;51.608;11.462;2022-07-23T04:12:15;17.00;99.90
49042;DHT22;34859;51.608;11.462;2022-07-23T04:15:01;17.00;99.90
49042;DHT22;34859;51.608;11.462;2022-07-23T04:17:47;17.00;99.90
49042;DHT22;34859;51.608;11.462;2022-07-23T04:20:32;16.90;99.90
49042;DHT22;34859;51.608;11.462;2022-07-23T04:23:19;16.80;99.90
49042;DHT22;34859;51.608;11.462;2022-07-23T04:26:05;16.90;99.90
49042;DHT22;34859;51.608;11.462;2022-07-23T04:28:50;16.90;99.90
49042;DHT22;34859;51.608;11.462;2022-07-23T04:31:36;16.90;99.90
49042;DHT22;34859;51.608;11.462;2022-07-23T04:34:22;16.90;99.90
49042;DHT22;34859;51.608;11.462;2022-07-23T04:37:08;16.90;99.90
49042;DHT22;34859;51.608;11.462;2022-07-23T04:39:53;16.90;99.90
49042;DHT22;34859;51.608;11.462;2022-07-23T04:42:39;16.90;99.90
49042;DHT22;34859;51.608;11.462;2022-07-23T04:45:25;17.00;99.90
49042;DHT22;34859;51.608;11.462;2022-07-23T04:48:10;17.00;99.90
49042;DHT22;34859;51.608;11.462;2022-07-23T04:50:56;16.90;99.90
49042;DHT22;34859;51.608;11.462;2022-07-23T04:53:41;16.90;99.90
49042;DHT22;34859;51.608;11.462;2022-07-23T04:56:27;16.90;99.90
49042;DHT22;34859;51.608;11.462;2022-07-23T04:59:13;16.80;99.90
49042;DHT22;34859;51.608;11.462;2022-07-23T05:01:58;16.80;99.90
49042;DHT22;34859;51.608;11.462;2022-07-23T05:04:44;16.80;99.90
49042;DHT22;34859;51.608;11.462;2022-07-23T05:07:29;16.80;99.90
49042;DHT22;34859;51.608;11.462;2022-07-23T05:10:15;16.70;99.90
49042;DHT22;34859;51.608;11.462;2022-07-23T05:13:01;16.70;99.90
49042;DHT22;34859;51.608;11.462;2022-07-23T05:15:47;16.70;99.90
49042;DHT22;34859;51.608;11.462;2022-07-23T05:18:32;16.70;99.90
49042;DHT22;34859;51.608;11.462;2022-07-23T05:21:18;16.70;99.90
49042;DHT22;34859;51.608;11.462;2022-07-23T05:24:04;16.80;99.90
49042;DHT22;34859;51.608;11.462;2022-07-23T05:26:50;16.80;99.90
49042;DHT22;34859;51.608;11.462;2022-07-23T05:29:36;16.80;99.90
49042;DHT22;34859;51.608;11.462;2022-07-23T05:32:22;16.80;99.90
49042;DHT22;34859;51.608;11.462;2022-07-23T05:35:08;16.80;99.90
49042;DHT22;34859;51.608;11.462;2022-07-23T05:37:54;16.70;99.90
49042;DHT22;34859;51.608;11.462;2022-07-23T05:40:39;16.70;99.90
49042;DHT22;34859;51.608;11.462;2022-07-23T05:43:25;16.60;99.90
49042;DHT22;34859;51.608;11.462;2022-07-23T05:46:11;16.70;99.90
49042;DHT22;34859;51.608;11.462;2022-07-23T05:48:56;16.60;99.90
49042;DHT22;34859;51.608;11.462;2022-07-23T05:51:42;16.70;99.90
49042;DHT22;34859;51.608;11.462;2022-07-23T05:54:27;16.70;99.90
49042;DHT22;34859;51.608;11.462;2022-07-23T05:57:13;16.80;99.90
49042;DHT22;34859;51.608;11.462;2022-07-23T05:59:59;16.80;99.90
49042;DHT22;34859;51.608;11.462;2022-07-23T06:02:45;16.80;99.90
49042;DHT22;34859;51.608;11.462;2022-07-23T06:05:30;16.90;99.90
49042;DHT22;34859;51.608;11.462;2022-07-23T06:08:16;17.10;99.90
49042;DHT22;34859;51.608;11.462;2022-07-23T06:11:02;17.20;99.90
49042;DHT22;34859;51.608;11.462;2022-07-23T06:13:47;17.10;99.90
49042;DHT22;34859;51.608;11.462;2022-07-23T06:16:33;17.00;99.90
49042;DHT22;34859;51.608;11.462;2022-07-23T06:19:18;17.10;99.90
49042;DHT22;34859;51.608;11.462;2022-07-23T06:22:04;17.10;99.90
49042;DHT22;34859;51.608;11.462;2022-07-23T06:24:50;17.10;99.90
49042;DHT22;34859;51.608;11.462;2022-07-23T06:27:37;17.10;99.90
49042;DHT22;34859;51.608;11.462;2022-07-23T06:30:22;17.20;99.90
49042;DHT22;34859;51.608;11.462;2022-07-23T06:33:08;17.40;99.90
49042;DHT22;34859;51.608;11.462;2022-07-23T06:35:54;17.40;99.90
49042;DHT22;34859;51.608;11.462;2022-07-23T06:38:39;17.40;99.90
49042;DHT22;34859;51.608;11.462;2022-07-23T06:41:25;17.70;99.90
49042;DHT22;34859;51.608;11.462;2022-07-23T06:44:10;17.70;99.90
49042;DHT22;34859;51.608;11.462;2022-07-23T06:46:56;17.50;99.90
49042;DHT22;34859;51.608;11.462;2022-07-23T06:49:41;17.60;99.90
49042;DHT22;34859;51.608;11.462;2022-07-23T06:52:27;17.50;99.90
49042;DHT22;34859;51.608;11.462;2022-07-23T06:55:11;17.30;99.90
49042;DHT22;34859;51.608;11.462;2022-07-23T06:57:57;17.30;99.90
49042;DHT22;34859;51.608;11.462;2022-07-23T07:00:42;17.40;99.90
49042;DHT22;34859;51.608;11.462;2022-07-23T07:03:28;17.50;99.90
49042;DHT22;34859;51.608;11.462;2022-07-23T07:06:14;17.40;99.90
49042;DHT22;34859;51.608;11.462;2022-07-23T07:09:00;17.40;99.90
49042;DHT22;34859;51.608;11.462;2022-07-23T07:11:45;17.50;99.90
49042;DHT22;34859;51.608;11.462;2022-07-23T07:14:32;17.50;99.90
49042;DHT22;34859;51.608;11.462;2022-07-23T07:17:17;17.40;99.90
49042;DHT22;34859;51.608;11.462;2022-07-23T07:20:03;17.40;99.90
49042;DHT22;34859;51.608;11.462;2022-07-23T07:22:49;17.50;99.90
49042;DHT22;34859;51.608;11.462;2022-07-23T07:25:35;17.50;99.90
49042;DHT22;34859;51.608;11.462;2022-07-23T07:28:21;17.70;99.90
49042;DHT22;34859;51.608;11.462;2022-07-23T07:31:06;17.70;99.90
49042;DHT22;34859;51.608;11.462;2022-07-23T07:33:52;17.70;99.90
49042;DHT22;34859;51.608;11.462;2022-07-23T07:36:38;17.60;99.90
49042;DHT22;34859;51.608;11.462;2022-07-23T07:39:23;17.50;99.90
49042;DHT22;34859;51.608;11.462;2022-07-23T07:42:09;17.50;99.90
49042;DHT22;34859;51.608;11.462;2022-07-23T07:44:55;17.50;99.90
49042;DHT22;34859;51.608;11.462;2022-07-23T07:47:41;17.70;99.90
49042;DHT22;34859;51.608;11.462;2022-07-23T07:50:26;17.90;99.90
49042;DHT22;34859;51.608;11.462;2022-07-23T07:53:12;18.10;99.90
49042;DHT22;34859;51.608;11.462;2022-07-23T07:55:58;18.10;99.90
49042;DHT22;34859;51.608;11.462;2022-07-23T07:58:43;18.10;99.90
49042;DHT22;34859;51.608;11.462;2022-07-23T08:01:29;17.90;99.90
49042;DHT22;34859;51.608;11.462;2022-07-23T08:04:15;17.90;99.90
49042;DHT22;34859;51.608;11.462;2022-07-23T08:07:01;17.90;99.90
49042;DHT22;34859;51.608;11.462;2022-07-23T08:09:46;18.00;99.90
49042;DHT22;34859;51.608;11.462;2022-07-23T08:12:58;18.20;99.90
49042;DHT22;34859;51.608;11.462;2022-07-23T08:15:45;18.30;99.90
49042;DHT22;34859;51.608;11.462;2022-07-23T08:18:31;18.30;99.90
49042;DHT22;34859;51.608;11.462;2022-07-23T08:21:17;18.40;99.90
49042;DHT22;34859;51.608;11.462;2022-07-23T08:24:03;18.50;99.90
49042;DHT22;34859;51.608;11.462;2022-07-23T08:26:48;18.50;99.90
49042;DHT22;34859;51.608;11.462;2022-07-23T08:29:34;18.50;99.90
49042;DHT22;34859;51.608;11.462;2022-07-23T08:32:19;18.40;99.90
49042;DHT22;34859;51.608;11.462;2022-07-23T08:35:05;18.40;99.90
49042;DHT22;34859;51.608;11.462;2022-07-23T08:37:51;18.40;99.90
49042;DHT22;34859;51.608;11.462;2022-07-23T08:40:39;18.30;99.90
49042;DHT22;34859;51.608;11.462;2022-07-23T08:43:28;18.30;99.90
49042;DHT22;34859;51.608;11.462;2022-07-23T08:46:14;18.50;99.90
49042;DHT22;34859;51.608;11.462;2022-07-23T08:49:02;18.50;99.90
49042;DHT22;34859;51.608;11.462;2022-07-23T08:51:48;18.50;99.90
49042;DHT22;34859;51.608;11.462;2022-07-23T08:54:34;18.50;99.90
49042;DHT22;34859;51.608;11.462;2022-07-23T08:57:20;18.50;99.90
49042;DHT22;34859;51.608;11.462;2022-07-23T09:00:06;18.50;99.90
49042;DHT22;34859;51.608;11.462;2022-07-23T09:02:53;18.50;99.90
49042;DHT22;34859;51.608;11.462;2022-07-23T09:05:38;18.60;99.90
49042;DHT22;34859;51.608;11.462;2022-07-23T09:08:34;18.60;99.90
49042;DHT22;34859;51.608;11.462;2022-07-23T09:11:20;18.70;99.90
49042;DHT22;34859;51.608;11.462;2022-07-23T09:14:05;19.00;99.90
49042;DHT22;34859;51.608;11.462;2022-07-23T09:16:51;19.20;99.90
49042;DHT22;34859;51.608;11.462;2022-07-23T09:19:36;19.20;99.90
49042;DHT22;34859;51.608;11.462;2022-07-23T09:22:26;19.30;99.90
49042;DHT22;34859;51.608;11.462;2022-07-23T09:25:15;19.30;99.90
49042;DHT22;34859;51.608;11.462;2022-07-23T09:28:01;19.20;99.90
49042;DHT22;34859;51.608;11.462;2022-07-23T09:30:51;19.30;99.90
49042;DHT22;34859;51.608;11.462;2022-07-23T09:33:36;19.30;99.90
49042;DHT22;34859;51.608;11.462;2022-07-23T09:36:28;19.40;99.90
49042;DHT22;34859;51.608;11.462;2022-07-23T09:39:16;19.50;99.90
49042;DHT22;34859;51.608;11.462;2022-07-23T09:42:24;19.40;99.90
49042;DHT22;34859;51.608;11.462;2022-07-23T09:45:10;19.30;99.90
49042;DHT22;34859;51.608;11.462;2022-07-23T09:48:15;19.40;99.90
49042;DHT22;34859;51.608;11.462;2022-07-23T09:51:02;19.50;99.90
49042;DHT22;34859;51.608;11.462;2022-07-23T09:53:50;19.60;99.90
49042;DHT22;34859;51.608;11.462;2022-07-23T09:56:36;19.50;99.90
49042;DHT22;34859;51.608;11.462;2022-07-23T09:59:25;19.60;99.90
49042;DHT22;34859;51.608;11.462;2022-07-23T10:02:12;19.80;99.90
49042;DHT22;34859;51.608;11.462;2022-07-23T10:04:59;20.00;99.90
49042;DHT22;34859;51.608;11.462;2022-07-23T10:07:45;20.00;99.90
49042;DHT22;34859;51.608;11.462;2022-07-23T10:10:31;20.00;99.90
49042;DHT22;34859;51.608;11.462;2022-07-23T10:13:17;20.00;99.90
49042;DHT22;34859;51.608;11.462;2022-07-23T10:16:19;20.10;99.90
49042;DHT22;34859;51.608;11.462;2022-07-23T10:19:05;20.10;99.90
49042;DHT22;34859;51.608;11.462;2022-07-23T10:21:54;20.20;99.90
49042;DHT22;34859;51.608;11.462;2022-07-23T10:25:10;20.30;99.90
49042;DHT22;34859;51.608;11.462;2022-07-23T10:37:16;20.70;99.90
49042;DHT22;34859;51.608;11.462;2022-07-23T10:40:22;20.80;99.90
49042;DHT22;34859;51.608;11.462;2022-07-23T10:43:15;21.00;99.90
49042;DHT22;34859;51.608;11.462;2022-07-23T10:46:31;21.30;99.90
49042;DHT22;34859;51.608;11.462;2022-07-23T10:49:43;21.40;99.90
49042;DHT22;34859;51.608;11.462;2022-07-23T10:52:29;21.70;99.90
49042;DHT22;34859;51.608;11.462;2022-07-23T10:58:19;22.00;99.90
49042;DHT22;34859;51.608;11.462;2022-07-23T11:01:31;22.10;99.90
49042;DHT22;34859;51.608;11.462;2022-07-23T11:04:17;22.30;99.90
49042;DHT22;34859;51.608;11.462;2022-07-23T11:09:48;22.70;99.90
49042;DHT22;34859;51.608;11.462;2022-07-23T11:12:34;22.90;99.90
49042;DHT22;34859;51.608;11.462;2022-07-23T11:15:20;23.20;99.90
49042;DHT22;34859;51.608;11.462;2022-07-23T11:18:06;23.20;99.90
49042;DHT22;34859;51.608;11.462;2022-07-23T11:20:51;23.10;99.90
49042;DHT22;34859;51.608;11.462;2022-07-23T11:26:50;22.80;99.90
49042;DHT22;34859;51.608;11.462;2022-07-23T11:29:37;22.70;99.90
49042;DHT22;34859;51.608;11.462;2022-07-23T11:32:27;22.60;99.90
49042;DHT22;34859;51.608;11.462;2022-07-23T11:35:23;22.50;99.90
49042;DHT22;34859;51.608;11.462;2022-07-23T11:38:17;22.50;99.90
49042;DHT22;34859;51.608;11.462;2022-07-23T11:41:03;22.40;99.90
49042;DHT22;34859;51.608;11.462;2022-07-23T11:43:49;22.40;99.90
49042;DHT22;34859;51.608;11.462;2022-07-23T11:46:35;22.30;99.90
49042;DHT22;34859;51.608;11.462;2022-07-23T11:49:20;22.20;99.90
49042;DHT22;34859;51.608;11.462;2022-07-23T11:52:11;22.40;99.90
49042;DHT22;34859;51.608;11.462;2022-07-23T11:55:00;22.50;99.90
49042;DHT22;34859;51.608;11.462;2022-07-23T11:57:46;22.60;99.90
49042;DHT22;34859;51.608;11.462;2022-07-23T12:00:32;22.60;99.90
49042;DHT22;34859;51.608;11.462;2022-07-23T12:03:18;22.60;99.90
49042;DHT22;34859;51.608;11.462;2022-07-23T12:06:04;22.70;99.90
49042;DHT22;34859;51.608;11.462;2022-07-23T12:08:50;23.00;99.90
49042;DHT22;34859;51.608;11.462;2022-07-23T12:11:35;23.30;99.90
49042;DHT22;34859;51.608;11.462;2022-07-23T12:14:21;23.40;99.90
49042;DHT22;34859;51.608;11.462;2022-07-23T12:17:10;23.20;99.90
49042;DHT22;34859;51.608;11.462;2022-07-23T12:19:57;23.20;99.90
49042;DHT22;34859;51.608;11.462;2022-07-23T12:22:48;23.70;99.90
49042;DHT22;34859;51.608;11.462;2022-07-23T12:25:40;23.80;99.90
49042;DHT22;34859;51.608;11.462;2022-07-23T12:28:32;23.80;99.90
49042;DHT22;34859;51.608;11.462;2022-07-23T12:31:28;24.00;99.90
49042;DHT22;34859;51.608;11.462;2022-07-23T12:34:14;24.20;99.90
49042;DHT22;34859;51.608;11.462;2022-07-23T12:37:01;24.40;99.90
49042;DHT22;34859;51.608;11.462;2022-07-23T12:39:46;24.40;99.90
49042;DHT22;34859;51.608;11.462;2022-07-23T12:42:42;24.50;99.90
49042;DHT22;34859;51.608;11.462;2022-07-23T12:45:41;24.40;99.90
49042;DHT22;34859;51.608;11.462;2022-07-23T12:48:28;24.10;99.90
49042;DHT22;34859;51.608;11.462;2022-07-23T12:51:25;23.90;99.90
49042;DHT22;34859;51.608;11.462;2022-07-23T12:54:11;23.50;99.90
49042;DHT22;34859;51.608;11.462;2022-07-23T12:56:57;23.30;99.90
49042;DHT22;34859;51.608;11.462;2022-07-23T12:59:42;23.10;99.90
49042;DHT22;34859;51.608;11.462;2022-07-23T13:02:28;23.00;99.90
49042;DHT22;34859;51.608;11.462;2022-07-23T13:05:29;22.80;99.90
49042;DHT22;34859;51.608;11.462;2022-07-23T13:08:15;22.70;99.90
49042;DHT22;34859;51.608;11.462;2022-07-23T13:11:01;22.60;99.90
49042;DHT22;34859;51.608;11.462;2022-07-23T13:13:47;22.70;99.90
49042;DHT22;34859;51.608;11.462;2022-07-23T13:16:33;22.60;99.90
49042;DHT22;34859;51.608;11.462;2022-07-23T13:19:19;22.90;99.90
49042;DHT22;34859;51.608;11.462;2022-07-23T13:22:07;23.30;99.90
49042;DHT22;34859;51.608;11.462;2022-07-23T13:24:53;23.40;99.90
49042;DHT22;34859;51.608;11.462;2022-07-23T13:27:38;23.40;99.90
49042;DHT22;34859;51.608;11.462;2022-07-23T13:30:24;23.50;99.90
49042;DHT22;34859;51.608;11.462;2022-07-23T13:33:10;23.70;99.90
49042;DHT22;34859;51.608;11.462;2022-07-23T13:35:55;24.00;99.90
49042;DHT22;34859;51.608;11.462;2022-07-23T13:38:41;24.10;99.90
49042;DHT22;34859;51.608;11.462;2022-07-23T13:41:27;24.40;99.90
49042;DHT22;34859;51.608;11.462;2022-07-23T13:44:12;24.40;99.90
49042;DHT22;34859;51.608;11.462;2022-07-23T13:46:58;24.50;99.90
49042;DHT22;34859;51.608;11.462;2022-07-23T13:49:44;24.50;99.90
49042;DHT22;34859;51.608;11.462;2022-07-23T13:52:30;24.40;99.90
49042;DHT22;34859;51.608;11.462;2022-07-23T13:55:15;24.50;99.90
49042;DHT22;34859;51.608;11.462;2022-07-23T13:58:02;24.40;99.90
49042;DHT22;34859;51.608;11.462;2022-07-23T14:00:51;24.40;99.90
49042;DHT22;34859;51.608;11.462;2022-07-23T14:03:37;24.80;99.90
49042;DHT22;34859;51.608;11.462;2022-07-23T14:06:22;24.90;99.90
49042;DHT22;34859;51.608;11.462;2022-07-23T14:09:08;24.70;99.90
49042;DHT22;34859;51.608;11.462;2022-07-23T14:11:54;24.70;99.90
49042;DHT22;34859;51.608;11.462;2022-07-23T14:14:39;24.40;99.90
49042;DHT22;34859;51.608;11.462;2022-07-23T14:17:25;24.20;99.90
49042;DHT22;34859;51.608;11.462;2022-07-23T14:20:13;24.20;99.90
49042;DHT22;34859;51.608;11.462;2022-07-23T14:22:59;24.30;99.90
49042;DHT22;34859;51.608;11.462;2022-07-23T14:25:45;24.20;99.90
49042;DHT22;34859;51.608;11.462;2022-07-23T14:28:34;24.30;99.90
49042;DHT22;34859;51.608;11.462;2022-07-23T14:31:20;24.40;99.90
49042;DHT22;34859;51.608;11.462;2022-07-23T14:34:05;24.50;99.90
49042;DHT22;34859;51.608;11.462;2022-07-23T14:36:52;24.50;99.90
49042;DHT22;34859;51.608;11.462;2022-07-23T14:39:39;24.50;99.90
49042;DHT22;34859;51.608;11.462;2022-07-23T14:42:25;24.40;99.90
49042;DHT22;34859;51.608;11.462;2022-07-23T14:45:10;24.30;99.90
49042;DHT22;34859;51.608;11.462;2022-07-23T14:47:56;24.20;99.90
49042;DHT22;34859;51.608;11.462;2022-07-23T14:50:42;24.30;99.90
49042;DHT22;34859;51.608;11.462;2022-07-23T14:53:28;24.20;99.90
49042;DHT22;34859;51.608;11.462;2022-07-23T14:56:14;24.00;99.90
49042;DHT22;34859;51.608;11.462;2022-07-23T14:59:00;24.00;99.90
49042;DHT22;34859;51.608;11.462;2022-07-23T15:01:46;24.20;99.90
49042;DHT22;34859;51.608;11.462;2022-07-23T15:04:31;24.50;99.90
49042;DHT22;34859;51.608;11.462;2022-07-23T15:07:17;24.60;99.90
49042;DHT22;34859;51.608;11.462;2022-07-23T15:10:03;24.80;99.90
49042;DHT22;34859;51.608;11.462;2022-07-23T15:12:49;24.70;99.90
49042;DHT22;34859;51.608;11.462;2022-07-23T15:15:35;24.70;99.90
49042;DHT22;34859;51.608;11.462;2022-07-23T15:18:21;24.70;99.90
49042;DHT22;34859;51.608;11.462;2022-07-23T15:21:06;24.70;99.90
49042;DHT22;34859;51.608;11.462;2022-07-23T15:23:52;24.60;99.90
49042;DHT22;34859;51.608;11.462;2022-07-23T15:26:38;24.80;99.90
49042;DHT22;34859;51.608;11.462;2022-07-23T15:29:24;24.90;99.90
49042;DHT22;34859;51.608;11.462;2022-07-23T15:32:10;25.00;99.80
49042;DHT22;34859;51.608;11.462;2022-07-23T15:34:56;25.00;99.90
49042;DHT22;34859;51.608;11.462;2022-07-23T15:37:42;25.00;99.60
49042;DHT22;34859;51.608;11.462;2022-07-23T15:40:28;25.10;98.90
49042;DHT22;34859;51.608;11.462;2022-07-23T15:43:14;25.10;99.90
49042;DHT22;34859;51.608;11.462;2022-07-23T15:45:59;25.00;99.20
49042;DHT22;34859;51.608;11.462;2022-07-23T15:48:45;25.10;98.30
49042;DHT22;34859;51.608;11.462;2022-07-23T15:51:31;25.20;97.60
49042;DHT22;34859;51.608;11.462;2022-07-23T15:54:17;25.10;98.10
49042;DHT22;34859;51.608;11.462;2022-07-23T15:57:03;25.10;99.00
49042;DHT22;34859;51.608;11.462;2022-07-23T15:59:49;25.00;98.80
49042;DHT22;34859;51.608;11.462;2022-07-23T16:02:34;24.70;97.00
49042;DHT22;34859;51.608;11.462;2022-07-23T16:05:20;24.50;97.20
49042;DHT22;34859;51.608;11.462;2022-07-23T16:08:18;24.60;98.00
49042;DHT22;34859;51.608;11.462;2022-07-23T16:11:04;24.70;98.00
49042;DHT22;34859;51.608;11.462;2022-07-23T16:13:50;24.60;98.40
49042;DHT22;34859;51.608;11.462;2022-07-23T16:16:36;24.60;98.10
49042;DHT22;34859;51.608;11.462;2022-07-23T16:19:21;24.60;96.90
49042;DHT22;34859;51.608;11.462;2022-07-23T16:22:07;24.60;96.60
49042;DHT22;34859;51.608;11.462;2022-07-23T16:24:52;24.50;96.60
49042;DHT22;34859;51.608;11.462;2022-07-23T16:27:39;24.50;98.20
49042;DHT22;34859;51.608;11.462;2022-07-23T16:30:26;24.60;98.00
49042;DHT22;34859;51.608;11.462;2022-07-23T16:33:11;24.50;97.70
49042;DHT22;34859;51.608;11.462;2022-07-23T16:35:57;24.50;96.50
49042;DHT22;34859;51.608;11.462;2022-07-23T16:38:43;24.50;97.10
49042;DHT22;34859;51.608;11.462;2022-07-23T16:41:28;24.40;96.70
49042;DHT22;34859;51.608;11.462;2022-07-23T16:44:14;24.30;97.10
49042;DHT22;34859;51.608;11.462;2022-07-23T16:47:00;24.20;96.30
49042;DHT22;34859;51.608;11.462;2022-07-23T16:49:47;24.20;97.70
49042;DHT22;34859;51.608;11.462;2022-07-23T16:52:33;24.30;97.00
49042;DHT22;34859;51.608;11.462;2022-07-23T16:55:19;24.20;97.30
49042;DHT22;34859;51.608;11.462;2022-07-23T16:58:05;24.10;97.30
49042;DHT22;34859;51.608;11.462;2022-07-23T17:00:51;24.10;97.90
49042;DHT22;34859;51.608;11.462;2022-07-23T17:03:36;24.10;96.80
49042;DHT22;34859;51.608;11.462;2022-07-23T17:06:22;24.00;98.10
49042;DHT22;34859;51.608;11.462;2022-07-23T17:09:08;24.00;96.70
49042;DHT22;34859;51.608;11.462;2022-07-23T17:11:54;23.90;96.70
49042;DHT22;34859;51.608;11.462;2022-07-23T17:14:39;23.80;96.40
49042;DHT22;34859;51.608;11.462;2022-07-23T17:17:25;23.70;96.70
49042;DHT22;34859;51.608;11.462;2022-07-23T17:20:11;23.70;96.60
49042;DHT22;34859;51.608;11.462;2022-07-23T17:22:57;23.70;96.90
49042;DHT22;34859;51.608;11.462;2022-07-23T17:25:42;23.70;98.30
49042;DHT22;34859;51.608;11.462;2022-07-23T17:28:28;23.60;97.40
49042;DHT22;34859;51.608;11.462;2022-07-23T17:31:14;23.50;97.30
49042;DHT22;34859;51.608;11.462;2022-07-23T17:34:00;23.50;97.00